createdAt,value
2019-04-22T00:02:22.576Z,36.20
2019-04-22T00:05:01.206Z,36.30
2019-04-22T00:07:42.055Z,37.60
2019-04-22T00:10:15.320Z,36.80
2019-04-22T00:12:43.927Z,37.00
2019-04-22T00:15:03.789Z,37.30
2019-04-22T00:22:32.634Z,37.50
2019-04-22T00:25:10.394Z,37.90
2019-04-22T00:27:35.743Z,38.00
2019-04-22T00:30:09.139Z,37.80
2019-04-22T00:32:24.096Z,38.30
2019-04-22T00:34:53.748Z,37.80
2019-04-22T00:37:24.319Z,38.00
2019-04-22T00:39:51.774Z,38.10
2019-04-22T00:42:20.855Z,38.10
2019-04-22T00:44:55.889Z,38.30
2019-04-22T00:47:26.405Z,38.30
2019-04-22T00:52:28.500Z,39.50
2019-04-22T00:54:48.881Z,38.90
2019-04-22T00:57:09.148Z,38.90
2019-04-22T00:59:40.307Z,39.00
2019-04-22T01:02:10.219Z,39.10
2019-04-22T01:07:00.728Z,41.40
2019-04-22T01:09:40.144Z,39.90
2019-04-22T01:12:00.162Z,39.70
2019-04-22T01:14:28.069Z,39.60
2019-04-22T01:17:02.412Z,40.00
2019-04-22T01:19:29.647Z,40.10
2019-04-22T01:21:58.405Z,39.70
2019-04-22T01:24:31.145Z,40.00
2019-04-22T01:26:50.754Z,40.00
2019-04-22T01:29:14.946Z,40.10
2019-04-22T01:31:36.509Z,40.20
2019-04-22T01:34:18.486Z,40.50
2019-04-22T01:36:47.415Z,40.50
2019-04-22T01:39:21.295Z,40.70
2019-04-22T01:41:55.211Z,40.70
2019-04-22T01:44:21.600Z,40.90
2019-04-22T01:47:03.415Z,41.20
2019-04-22T01:49:19.149Z,42.90
2019-04-22T01:51:51.787Z,42.50
2019-04-22T01:54:12.899Z,43.30
2019-04-22T01:56:41.144Z,43.80
2019-04-22T01:58:59.230Z,43.60
2019-04-22T02:01:37.630Z,43.80
2019-04-22T02:04:08.884Z,43.90
2019-04-22T02:06:35.211Z,45.20
2019-04-22T02:09:17.455Z,45.40
2019-04-22T02:11:32.310Z,44.30
2019-04-22T02:13:56.797Z,44.30
2019-04-22T02:16:29.009Z,44.40
2019-04-22T02:18:52.803Z,44.40
2019-04-22T02:21:13.818Z,44.50
2019-04-22T02:26:15.782Z,44.90
2019-04-22T02:28:56.467Z,45.50
2019-04-22T02:36:23.059Z,45.70
2019-04-22T02:41:22.142Z,46.00
2019-04-22T02:46:22.662Z,45.60
2019-04-22T02:51:10.398Z,45.80
2019-04-22T02:54:02.065Z,45.90
2019-04-22T02:56:25.557Z,45.90
2019-04-22T02:58:41.819Z,46.10
2019-04-22T03:01:06.011Z,46.30
2019-04-22T03:03:36.600Z,46.30
2019-04-22T03:06:16.480Z,46.30
2019-04-22T03:08:23.937Z,46.30
2019-04-22T03:10:56.895Z,46.50
2019-04-22T03:15:55.475Z,46.80
2019-04-22T03:18:21.783Z,47.40
2019-04-22T03:20:41.956Z,47.20
2019-04-22T03:23:31.802Z,47.40
2019-04-22T03:27:58.363Z,47.80
2019-04-22T03:35:50.043Z,48.10
2019-04-22T03:37:55.967Z,48.60
2019-04-22T03:43:09.204Z,48.80
2019-04-22T03:50:25.628Z,49.20
2019-04-22T03:53:00.736Z,49.70
2019-04-22T03:55:23.133Z,49.50
2019-04-22T03:57:49.663Z,49.70
2019-04-22T04:00:26.499Z,49.80
2019-04-22T04:02:46.026Z,50.00
2019-04-22T04:05:26.348Z,50.00
2019-04-22T04:10:25.288Z,50.40
2019-04-22T04:12:38.641Z,51.50
2019-04-22T04:15:16.054Z,52.50
2019-04-22T04:17:36.943Z,51.80
2019-04-22T04:20:24.328Z,51.60
2019-04-22T04:22:46.042Z,51.90
2019-04-22T04:25:24.197Z,51.90
2019-04-22T04:30:59.968Z,52.40
2019-04-22T04:39:59.852Z,53.00
2019-04-22T04:42:23.091Z,53.50
2019-04-22T04:47:11.489Z,54.40
2019-04-22T04:49:43.569Z,54.30
2019-04-22T04:52:06.407Z,54.00
2019-04-22T04:56:56.064Z,56.40
2019-04-22T05:07:00.024Z,56.50
2019-04-22T05:09:19.629Z,56.10
2019-04-22T05:21:33.994Z,57.20
2019-04-22T05:24:09.535Z,57.20
2019-04-22T05:26:35.524Z,57.80
2019-04-22T05:28:58.951Z,58.00
2019-04-22T05:31:32.217Z,58.30
2019-04-22T05:33:56.333Z,58.70
2019-04-22T05:38:53.477Z,59.00
2019-04-22T05:41:17.888Z,59.60
2019-04-22T05:43:50.064Z,59.70
2019-04-22T05:46:18.438Z,60.30
2019-04-22T05:48:51.072Z,60.30
2019-04-22T05:51:10.003Z,60.80
2019-04-22T05:53:40.311Z,60.80
2019-04-22T05:56:13.979Z,61.30
2019-04-22T05:58:39.484Z,61.30
2019-04-22T06:03:42.569Z,62.50
2019-04-22T06:06:06.410Z,64.50
2019-04-22T06:08:29.531Z,63.70
2019-04-22T06:11:04.128Z,62.50
2019-04-22T06:13:26.758Z,61.90
2019-04-22T06:15:53.100Z,62.20
2019-04-22T06:18:27.225Z,63.10
2019-04-22T06:21:06.889Z,61.90
2019-04-22T06:26:07.902Z,61.70
2019-04-22T06:28:29.025Z,61.70
2019-04-22T06:33:20.743Z,62.90
2019-04-22T06:38:33.054Z,62.00
2019-04-22T06:40:46.569Z,63.70
2019-04-22T06:43:20.008Z,63.60
2019-04-22T06:45:41.391Z,62.20
2019-04-22T06:48:12.803Z,61.90
2019-04-22T06:50:41.782Z,62.20
2019-04-22T06:53:02.977Z,60.40
2019-04-22T06:55:40.168Z,59.90
2019-04-22T06:57:58.205Z,59.90
2019-04-22T07:00:32.365Z,59.20
2019-04-22T07:03:26.924Z,58.70
2019-04-22T07:05:27.636Z,58.00
2019-04-22T07:08:02.707Z,58.50
2019-04-22T07:12:49.805Z,56.20
2019-04-22T07:15:35.814Z,56.80
2019-04-22T07:17:52.222Z,55.20
2019-04-22T07:20:17.545Z,55.70
2019-04-22T07:22:40.173Z,54.70
2019-04-22T07:25:12.844Z,54.40
2019-04-22T07:27:44.085Z,53.80
2019-04-22T07:30:15.431Z,53.70
2019-04-22T07:35:08.736Z,52.00
2019-04-22T07:37:36.788Z,50.90
2019-04-22T07:39:59.845Z,51.30
2019-04-22T07:44:54.876Z,51.50
2019-04-22T07:47:25.728Z,50.30
2019-04-22T07:49:52.227Z,50.00
2019-04-22T07:52:22.981Z,47.80
2019-04-22T07:54:46.901Z,48.30
2019-04-22T07:57:20.216Z,48.00
2019-04-22T07:59:40.780Z,47.70
2019-04-22T08:02:10.288Z,47.80
2019-04-22T08:04:56.086Z,46.20
2019-04-22T08:07:24.058Z,45.90
2019-04-22T08:11:59.876Z,44.80
2019-04-22T08:14:28.313Z,45.50
2019-04-22T08:17:14.078Z,43.20
2019-04-22T08:19:35.376Z,43.70
2019-04-22T08:22:00.031Z,43.10
2019-04-22T08:24:22.711Z,43.70
2019-04-22T08:26:53.230Z,43.30
2019-04-22T08:29:22.043Z,42.40
2019-04-22T08:31:48.594Z,41.80
2019-04-22T08:36:55.436Z,40.80
2019-04-22T08:39:13.642Z,41.30
2019-04-22T08:44:35.531Z,39.00
2019-04-22T08:46:41.012Z,40.40
2019-04-22T08:49:18.894Z,39.60
2019-04-22T08:51:37.773Z,38.20
2019-04-22T08:56:32.104Z,38.20
2019-04-22T08:59:03.096Z,39.20
2019-04-22T09:04:01.078Z,38.30
2019-04-22T09:06:36.493Z,39.30
2019-04-22T09:08:54.084Z,39.50
2019-04-22T09:11:21.224Z,36.50
2019-04-22T09:13:50.478Z,35.60
2019-04-22T09:16:20.718Z,36.30
2019-04-22T09:18:45.841Z,36.70
2019-04-22T09:23:44.511Z,37.30
2019-04-22T09:26:09.074Z,37.20
2019-04-22T09:28:42.274Z,36.00
2019-04-22T09:36:07.888Z,36.00
2019-04-22T09:40:52.651Z,33.60
2019-04-22T09:43:26.458Z,35.00
2019-04-22T09:45:47.811Z,35.60
2019-04-22T09:48:23.474Z,33.40
2019-04-22T09:50:47.946Z,32.70
2019-04-22T09:53:20.061Z,34.40
2019-04-22T09:55:45.136Z,32.10
2019-04-22T09:58:09.683Z,31.20
2019-04-22T10:01:00.193Z,31.40
2019-04-22T10:03:15.175Z,31.20
2019-04-22T10:05:46.092Z,30.70
2019-04-22T10:08:18.210Z,32.60
2019-04-22T10:10:51.511Z,32.60
2019-04-22T10:13:08.540Z,33.60
2019-04-22T10:15:36.252Z,32.80
2019-04-22T10:18:04.126Z,32.90
2019-04-22T10:20:36.270Z,33.20
2019-04-22T10:23:03.748Z,32.10
2019-04-22T10:25:30.053Z,30.60
2019-04-22T10:28:03.600Z,31.40
2019-04-22T10:30:33.572Z,31.00
2019-04-22T10:32:52.297Z,32.40
2019-04-22T10:35:14.357Z,32.60
2019-04-22T10:37:38.611Z,31.30
2019-04-22T10:40:11.273Z,30.10
2019-04-22T10:42:40.933Z,31.50
2019-04-22T10:45:08.177Z,30.60
2019-04-22T10:47:34.439Z,31.20
2019-04-22T10:50:00.704Z,31.40
2019-04-22T10:52:27.680Z,31.10
2019-04-22T10:54:53.949Z,29.50
2019-04-22T10:57:20.166Z,29.50
2019-04-22T10:59:46.850Z,29.00
2019-04-22T11:02:13.705Z,29.30
2019-04-22T11:04:40.470Z,29.70
2019-04-22T11:07:10.737Z,29.30
2019-04-22T11:09:47.709Z,29.10
2019-04-22T11:12:09.931Z,28.80
2019-04-22T11:14:32.736Z,29.10
2019-04-22T11:17:02.227Z,28.30
2019-04-22T11:19:27.815Z,28.50
2019-04-22T11:22:03.769Z,28.60
2019-04-22T11:24:23.024Z,28.70
2019-04-22T11:26:49.407Z,28.70
2019-04-22T11:29:15.553Z,28.60
2019-04-22T11:31:42.328Z,28.20
2019-04-22T11:34:08.909Z,28.10
2019-04-22T11:36:36.925Z,28.10
2019-04-22T11:53:50.498Z,27.70
2019-04-22T11:56:16.857Z,28.10
2019-04-22T11:58:44.498Z,28.30
2019-04-22T12:01:10.901Z,28.10
2019-04-22T12:03:37.996Z,27.80
2019-04-22T12:06:04.379Z,27.50
2019-04-22T12:08:31.149Z,27.70
2019-04-22T12:11:00.894Z,27.80
2019-04-22T12:18:19.672Z,26.60
2019-04-22T12:20:47.178Z,29.50
2019-04-22T12:23:14.785Z,29.80
2019-04-22T12:25:48.690Z,29.50
2019-04-22T12:28:10.886Z,29.40
2019-04-22T12:30:37.466Z,30.00
2019-04-22T12:33:04.379Z,29.30
2019-04-22T12:35:32.748Z,28.90
2019-04-22T12:38:03.454Z,28.60
2019-04-22T12:40:38.240Z,28.60
2019-04-22T12:42:55.538Z,28.50
2019-04-22T12:45:22.433Z,28.40
2019-04-22T12:47:48.743Z,28.30
2019-04-22T12:50:23.397Z,28.20
2019-04-22T12:52:51.427Z,31.20
2019-04-22T12:55:14.224Z,31.60
2019-04-22T12:57:40.882Z,34.30
2019-04-22T13:00:08.940Z,37.90
2019-04-22T13:02:35.144Z,36.40
2019-04-22T13:05:01.349Z,36.30
2019-04-22T13:07:27.488Z,35.70
2019-04-22T13:09:54.948Z,35.80
2019-04-22T13:12:22.474Z,36.00
2019-04-22T13:14:48.946Z,35.70
2019-04-22T13:17:15.697Z,36.00
2019-04-22T13:19:44.379Z,35.90
2019-04-22T13:22:10.861Z,35.90
2019-04-22T13:24:37.037Z,36.40
2019-04-22T13:27:03.374Z,36.20
2019-04-22T13:29:30.990Z,36.90
2019-04-22T13:31:58.592Z,36.90
2019-04-22T13:47:06.813Z,25.50
2019-04-22T13:49:40.471Z,25.10
2019-04-22T13:52:18.842Z,25.10
2019-04-22T13:56:52.122Z,25.40
2019-04-22T13:59:13.564Z,25.80
2019-04-22T14:01:36.576Z,24.50
2019-04-22T14:04:04.937Z,25.10
2019-04-22T14:11:34.419Z,23.80
2019-04-22T14:13:53.224Z,23.30
2019-04-22T14:16:19.575Z,23.40
2019-04-22T14:21:14.944Z,22.70
2019-04-22T14:23:42.395Z,22.20
2019-04-22T14:26:09.129Z,22.60
2019-04-22T14:28:35.702Z,22.90
2019-04-22T14:31:02.398Z,22.50
2019-04-22T14:33:29.962Z,22.70
2019-04-22T14:35:56.454Z,21.20
2019-04-22T14:38:23.881Z,21.60
2019-04-22T14:40:50.081Z,21.80
2019-04-22T14:43:46.277Z,21.90
2019-04-22T14:48:41.946Z,21.60
2019-04-22T14:51:00.953Z,21.60
2019-04-22T14:53:30.817Z,20.70
2019-04-22T14:55:38.222Z,20.60
2019-04-22T14:58:04.806Z,20.90
2019-04-22T15:00:31.732Z,21.20
2019-04-22T15:02:57.935Z,20.70
2019-04-22T15:05:24.010Z,20.60
2019-04-22T15:07:50.174Z,20.80
2019-04-22T15:10:18.164Z,21.10
2019-04-22T15:12:48.135Z,20.80
2019-04-22T15:15:15.562Z,20.50
2019-04-22T15:17:44.988Z,20.40
2019-04-22T15:20:31.785Z,21.20
2019-04-22T15:22:59.065Z,20.20
2019-04-22T15:25:26.250Z,21.10
2019-04-22T15:27:53.334Z,21.20
2019-04-22T15:30:21.320Z,21.10
2019-04-22T15:32:49.736Z,20.30
2019-04-22T15:35:17.409Z,20.40
2019-04-22T15:37:45.540Z,20.50
2019-04-22T15:40:13.062Z,20.30
2019-04-22T15:42:42.862Z,20.60
2019-04-22T15:45:08.526Z,20.60
2019-04-22T15:47:35.164Z,21.10
2019-04-22T15:50:03.842Z,20.60
2019-04-22T15:52:37.592Z,21.10
2019-04-22T15:54:58.394Z,21.50
2019-04-22T15:57:24.763Z,22.40
2019-04-22T16:00:08.201Z,20.90
2019-04-22T16:02:19.431Z,21.00
2019-04-22T16:04:46.549Z,20.60
2019-04-22T16:07:12.871Z,21.00
2019-04-22T16:09:39.467Z,21.30
2019-04-22T16:12:16.168Z,20.30
2019-04-22T16:14:41.114Z,20.50
2019-04-22T16:17:01.675Z,20.70
2019-04-22T16:19:27.736Z,20.80
2019-04-22T16:21:59.351Z,20.60
2019-04-22T16:24:24.333Z,20.00
2019-04-22T16:26:53.869Z,20.10
2019-04-22T16:29:21.230Z,20.40
2019-04-22T16:31:47.738Z,20.10
2019-04-22T16:34:15.345Z,19.80
2019-04-22T16:36:42.766Z,19.70
2019-04-22T16:39:11.017Z,20.30
2019-04-22T16:41:37.189Z,20.00
2019-04-22T16:44:04.669Z,20.40
2019-04-22T16:46:31.879Z,20.40
2019-04-22T16:48:58.240Z,20.20
2019-04-22T16:51:24.599Z,19.60
2019-04-22T16:53:51.055Z,20.10
2019-04-22T16:56:17.196Z,20.20
2019-04-22T16:58:43.391Z,20.30
2019-04-22T17:03:56.625Z,20.40
2019-04-22T17:06:25.671Z,20.90
2019-04-22T17:11:20.204Z,20.90
2019-04-22T17:13:47.997Z,21.30
2019-04-22T17:16:15.674Z,21.40
2019-04-22T17:18:43.508Z,21.50
2019-04-22T17:21:11.055Z,21.80
2019-04-22T17:23:38.243Z,21.70
2019-04-22T17:26:04.437Z,21.80
2019-04-22T17:28:31.311Z,21.80
2019-04-22T17:30:57.713Z,22.00
2019-04-22T17:33:23.796Z,22.10
2019-04-22T17:35:50.337Z,22.30
2019-04-22T17:38:26.988Z,22.40
2019-04-22T17:41:01.469Z,23.00
2019-04-22T17:43:42.306Z,23.10
2019-04-22T17:46:10.833Z,23.30
2019-04-22T17:48:49.120Z,23.80
2019-04-22T17:53:46.851Z,23.70
2019-04-22T17:56:14.087Z,24.50
2019-04-22T17:58:45.120Z,24.60
2019-04-22T18:01:09.190Z,24.60
2019-04-22T18:03:29.118Z,25.30
2019-04-22T18:05:53.223Z,25.60
2019-04-22T18:08:36.516Z,25.90
2019-04-22T18:11:05.933Z,26.40
2019-04-22T18:13:32.976Z,26.90
2019-04-22T18:16:07.030Z,26.80
2019-04-22T18:18:30.147Z,26.80
2019-04-22T18:20:52.024Z,27.30
2019-04-22T18:23:09.687Z,27.50
2019-04-22T18:25:52.407Z,27.60
2019-04-22T18:28:25.192Z,27.80
2019-04-22T18:30:41.271Z,28.10
2019-04-22T18:33:16.423Z,28.40
2019-04-22T18:35:40.043Z,28.40
2019-04-22T18:38:21.558Z,28.50
2019-04-22T18:40:38.388Z,28.60
2019-04-22T18:43:14.744Z,29.30
2019-04-22T18:45:49.369Z,29.60
2019-04-22T18:47:58.548Z,29.60
2019-04-22T18:50:45.274Z,30.00
2019-04-22T18:53:29.808Z,29.80
2019-04-22T18:56:09.739Z,30.20
2019-04-22T18:58:26.041Z,30.10
2019-04-22T19:00:43.880Z,30.80
2019-04-22T19:03:16.489Z,31.00
2019-04-22T19:06:00.958Z,31.30
2019-04-22T19:08:28.890Z,31.60
2019-04-22T19:11:02.578Z,31.80
2019-04-22T19:13:54.462Z,32.00
2019-04-22T19:16:09.846Z,32.50
2019-04-22T19:18:29.911Z,32.60
2019-04-22T19:20:57.840Z,32.40
2019-04-22T19:23:19.334Z,32.60
2019-04-22T19:25:42.357Z,33.10
2019-04-22T19:28:23.912Z,33.40
2019-04-22T19:30:47.845Z,32.80
2019-04-22T19:33:11.197Z,33.50
2019-04-22T19:35:35.016Z,33.90
2019-04-22T19:38:00.208Z,33.70
2019-04-22T19:40:52.736Z,34.00
2019-04-22T19:43:09.076Z,33.80
2019-04-22T19:45:37.086Z,34.30
2019-04-22T19:48:14.081Z,34.20
2019-04-22T19:50:35.370Z,34.40
2019-04-22T19:53:05.015Z,34.10
2019-04-22T19:55:29.796Z,34.80
2019-04-22T19:57:57.350Z,34.80
2019-04-22T20:00:28.823Z,34.90
2019-04-22T20:03:21.717Z,35.10
2019-04-22T20:05:47.671Z,35.30
2019-04-22T20:08:21.447Z,35.40
2019-04-22T20:10:45.911Z,35.50
2019-04-22T20:13:20.332Z,35.60
2019-04-22T20:15:33.499Z,35.10
2019-04-22T20:20:41.889Z,36.00
2019-04-22T20:23:02.882Z,35.80
2019-04-22T20:25:33.288Z,36.20
2019-04-22T20:28:10.995Z,36.20
2019-04-22T20:30:34.803Z,36.80
2019-04-22T20:32:56.661Z,36.40
2019-04-22T20:35:27.729Z,36.70
2019-04-22T20:37:56.790Z,36.40
2019-04-22T20:40:31.788Z,36.40
2019-04-22T20:43:01.448Z,37.10
2019-04-22T20:45:30.804Z,36.70
2019-04-22T20:47:45.474Z,36.90
2019-04-22T20:50:25.005Z,37.10
2019-04-22T20:52:59.001Z,36.80
2019-04-22T20:55:13.114Z,37.30
2019-04-22T20:57:48.021Z,38.10
2019-04-22T21:00:09.069Z,37.70
2019-04-22T21:02:32.676Z,38.30
2019-04-22T21:05:00.095Z,38.00
2019-04-22T21:07:32.500Z,38.10
2019-04-22T21:10:02.383Z,38.60
2019-04-22T21:12:29.260Z,38.90
2019-04-22T21:15:06.806Z,38.90
2019-04-22T21:17:30.925Z,38.90
2019-04-22T21:20:00.101Z,39.50
2019-04-22T21:22:27.304Z,39.40
2019-04-22T21:24:49.226Z,39.30
2019-04-22T21:27:40.716Z,39.60
2019-04-22T21:29:43.594Z,39.80
2019-04-22T21:32:19.422Z,39.90
2019-04-22T21:34:52.752Z,39.20
2019-04-22T21:37:23.198Z,39.60
2019-04-22T21:39:36.710Z,39.90
2019-04-22T21:42:09.160Z,40.80
2019-04-22T21:44:34.043Z,40.20
2019-04-22T21:47:13.084Z,40.40
2019-04-22T21:49:35.502Z,39.90
2019-04-22T21:51:59.762Z,40.70
2019-04-22T21:54:31.612Z,40.10
2019-04-22T21:57:37.415Z,40.80
2019-04-22T21:59:47.430Z,41.00
2019-04-22T22:02:17.091Z,40.80
2019-04-22T22:04:38.609Z,40.80
2019-04-22T22:07:01.067Z,40.90
2019-04-22T22:09:42.949Z,40.60
2019-04-22T22:12:05.110Z,41.70
2019-04-22T22:14:36.490Z,41.30
2019-04-22T22:16:56.101Z,41.40
2019-04-22T22:19:35.921Z,41.50
2019-04-22T22:22:06.068Z,41.80
2019-04-22T22:24:33.913Z,41.70
2019-04-22T22:26:55.958Z,41.40
2019-04-22T22:29:39.635Z,41.40
2019-04-22T22:31:57.818Z,42.30
2019-04-22T22:34:24.480Z,42.30
2019-04-22T22:36:40.434Z,42.30
2019-04-22T22:39:10.344Z,42.10
2019-04-22T22:41:25.996Z,42.20
2019-04-22T22:43:57.272Z,42.80
2019-04-22T22:46:51.636Z,43.00
2019-04-22T22:49:29.940Z,42.80
2019-04-22T22:51:53.121Z,43.20
2019-04-22T22:54:25.105Z,43.00
2019-04-22T22:56:57.622Z,43.20
2019-04-22T22:59:15.796Z,43.30
2019-04-22T23:01:45.390Z,43.00
2019-04-22T23:04:18.015Z,43.40
2019-04-22T23:06:45.537Z,43.60
2019-04-22T23:09:10.245Z,43.50
2019-04-22T23:11:52.528Z,43.40
2019-04-22T23:14:07.888Z,43.80
2019-04-22T23:16:22.012Z,43.40
2019-04-22T23:18:59.720Z,44.10
2019-04-22T23:21:32.823Z,44.60
2019-04-22T23:24:14.518Z,44.50
2019-04-22T23:26:43.864Z,43.90
2019-04-22T23:29:24.916Z,44.50
2019-04-22T23:31:52.628Z,44.50
2019-04-22T23:34:32.777Z,44.50
2019-04-22T23:37:05.420Z,44.60
2019-04-22T23:39:41.540Z,44.90
2019-04-22T23:42:06.076Z,44.90
2019-04-22T23:44:32.493Z,44.90
2019-04-22T23:46:56.848Z,45.00
2019-04-22T23:49:25.333Z,45.40
2019-04-22T23:52:00.766Z,45.10
2019-04-22T23:54:31.329Z,45.60
2019-04-22T23:56:52.561Z,45.40
2019-04-22T23:59:32.644Z,45.80
